createdAt,value
2019-04-05T00:01:12.316Z,9.43
2019-04-05T00:03:40.315Z,10.00
2019-04-05T00:06:09.027Z,9.27
2019-04-05T00:08:37.376Z,6.87
2019-04-05T00:11:06.083Z,9.03
2019-04-05T00:13:34.158Z,8.70
2019-04-05T00:16:02.540Z,4.90
2019-04-05T00:18:30.619Z,6.63
2019-04-05T00:20:58.759Z,10.23
2019-04-05T00:23:27.038Z,9.33
2019-04-05T00:25:56.236Z,6.93
2019-04-05T00:28:24.404Z,9.33
2019-04-05T00:30:53.121Z,8.63
2019-04-05T00:33:21.187Z,7.70
2019-04-05T00:35:49.564Z,7.03
2019-04-05T00:38:17.731Z,5.53
2019-04-05T00:40:46.308Z,11.33
2019-04-05T00:43:14.415Z,9.37
2019-04-05T00:45:42.571Z,7.53
2019-04-05T00:48:10.643Z,10.63
2019-04-05T00:50:39.220Z,7.20
2019-04-05T00:53:07.929Z,7.17
2019-04-05T00:55:36.003Z,7.23
2019-04-05T00:58:04.260Z,9.37
2019-04-05T01:00:32.407Z,8.43
2019-04-05T01:03:01.079Z,10.87
2019-04-05T01:05:28.961Z,10.10
2019-04-05T01:07:57.273Z,11.53
2019-04-05T01:10:25.320Z,10.63
2019-04-05T01:12:53.595Z,10.10
2019-04-05T01:15:21.767Z,9.73
2019-04-05T01:17:50.144Z,7.87
2019-04-05T01:20:18.564Z,7.17
2019-04-05T01:22:46.784Z,11.67
2019-04-05T01:25:14.951Z,6.20
2019-04-05T01:27:43.183Z,10.77
2019-04-05T01:30:14.659Z,9.80
2019-04-05T01:32:42.895Z,9.97
2019-04-05T01:35:10.923Z,10.33
2019-04-05T01:37:40.021Z,6.97
2019-04-05T01:40:08.521Z,9.07
2019-04-05T01:42:37.296Z,5.37
2019-04-05T01:45:06.905Z,7.20
2019-04-05T01:47:35.225Z,6.73
2019-04-05T01:50:04.417Z,9.10
2019-04-05T01:52:32.935Z,7.83
2019-04-05T01:55:01.474Z,6.17
2019-04-05T01:57:29.550Z,6.13
2019-04-05T01:59:57.892Z,8.70
2019-04-05T02:02:26.270Z,6.33
2019-04-05T02:04:54.427Z,6.67
2019-04-05T02:07:22.719Z,5.07
2019-04-05T02:09:51.227Z,5.93
2019-04-05T02:12:20.428Z,7.73
2019-04-05T02:14:48.472Z,7.03
2019-04-05T02:17:16.467Z,5.00
2019-04-05T02:19:45.333Z,4.97
2019-04-05T02:22:13.744Z,6.23
2019-04-05T02:24:41.579Z,7.97
2019-04-05T02:27:09.745Z,6.60
2019-04-05T02:29:38.055Z,6.30
2019-04-05T02:32:06.108Z,9.27
2019-04-05T02:34:33.992Z,8.73
2019-04-05T02:37:01.925Z,7.67
2019-04-05T02:39:30.100Z,6.90
2019-04-05T02:41:58.658Z,6.10
2019-04-05T02:44:28.085Z,7.97
2019-04-05T02:46:56.572Z,5.90
2019-04-05T02:49:27.214Z,11.27
2019-04-05T02:51:57.298Z,10.60
2019-04-05T02:54:26.700Z,5.93
2019-04-05T02:56:55.516Z,10.07
2019-04-05T02:59:24.848Z,6.00
2019-04-05T03:01:53.692Z,6.37
2019-04-05T03:04:22.071Z,5.57
2019-04-05T03:06:51.075Z,5.60
2019-04-05T03:09:19.560Z,4.70
2019-04-05T03:11:48.348Z,7.85
2019-04-05T03:14:17.385Z,8.13
2019-04-05T03:17:22.056Z,8.10
2019-04-05T03:20:03.877Z,6.73
2019-04-05T03:22:38.327Z,3.37
2019-04-05T03:25:07.635Z,4.10
2019-04-05T03:27:37.983Z,5.23
2019-04-05T03:30:07.625Z,7.30
2019-04-05T03:32:36.122Z,6.30
2019-04-05T03:35:04.853Z,5.07
2019-04-05T03:37:33.360Z,6.63
2019-04-05T03:40:02.235Z,6.23
2019-04-05T03:42:30.400Z,5.77
2019-04-05T03:44:58.824Z,6.73
2019-04-05T03:47:26.753Z,6.47
2019-04-05T03:49:55.200Z,7.17
2019-04-05T03:52:23.653Z,6.40
2019-04-05T03:54:51.732Z,3.67
2019-04-05T03:57:19.742Z,7.40
2019-04-05T03:59:47.985Z,7.03
2019-04-05T04:02:16.341Z,5.93
2019-04-05T04:04:44.648Z,5.43
2019-04-05T04:07:12.989Z,5.07
2019-04-05T04:09:41.381Z,5.03
2019-04-05T04:12:09.480Z,7.73
2019-04-05T04:14:38.318Z,6.43
2019-04-05T04:17:12.788Z,6.50
2019-04-05T04:19:36.874Z,10.33
2019-04-05T04:22:26.801Z,9.57
2019-04-05T04:24:54.895Z,10.53
2019-04-05T04:27:23.837Z,7.27
2019-04-05T04:29:52.676Z,7.03
2019-04-05T04:32:20.832Z,5.73
2019-04-05T04:34:48.959Z,5.10
2019-04-05T04:37:16.989Z,6.47
2019-04-05T04:39:45.256Z,7.47
2019-04-05T04:42:13.660Z,6.53
2019-04-05T04:44:43.644Z,8.23
2019-04-05T04:47:25.050Z,5.70
2019-04-05T04:49:42.074Z,5.13
2019-04-05T04:52:10.727Z,6.20
2019-04-05T04:54:39.070Z,9.07
2019-04-05T04:57:07.596Z,6.57
2019-04-05T04:59:35.624Z,6.30
2019-04-05T05:02:03.845Z,6.40
2019-04-05T05:04:32.215Z,7.47
2019-04-05T05:07:00.915Z,5.03
2019-04-05T05:09:29.383Z,4.57
2019-04-05T05:11:57.388Z,7.13
2019-04-05T05:14:26.047Z,6.97
2019-04-05T05:16:54.605Z,5.47
2019-04-05T05:19:22.993Z,7.23
2019-04-05T05:21:53.260Z,8.53
2019-04-05T05:24:21.610Z,3.20
2019-04-05T05:26:50.105Z,5.57
2019-04-05T05:29:18.918Z,5.20
2019-04-05T05:31:50.116Z,5.57
2019-04-05T05:34:18.085Z,8.63
2019-04-05T05:36:46.052Z,8.60
2019-04-05T05:39:14.577Z,7.93
2019-04-05T05:41:42.612Z,7.23
2019-04-05T05:44:10.918Z,6.47
2019-04-05T05:46:38.955Z,3.97
2019-04-05T05:49:07.643Z,6.40
2019-04-05T05:51:36.509Z,5.80
2019-04-05T05:54:04.718Z,11.17
2019-04-05T05:56:32.804Z,9.80
2019-04-05T05:59:00.951Z,25.13
2019-04-05T06:01:29.423Z,6.53
2019-04-05T06:03:57.628Z,6.60
2019-04-05T06:06:25.747Z,5.77
2019-04-05T06:08:53.575Z,6.47
2019-04-05T06:11:21.396Z,6.53
2019-04-05T06:13:49.375Z,4.40
2019-04-05T06:16:17.480Z,8.10
2019-04-05T06:18:48.460Z,6.90
2019-04-05T06:21:15.384Z,7.83
2019-04-05T06:23:43.063Z,7.80
2019-04-05T06:26:11.313Z,6.87
2019-04-05T06:28:39.261Z,8.60
2019-04-05T06:31:06.928Z,6.83
2019-04-05T06:33:35.907Z,5.03
2019-04-05T06:36:04.323Z,10.30
2019-04-05T06:38:32.003Z,6.60
2019-04-05T06:40:59.741Z,4.57
2019-04-05T06:43:27.444Z,6.33
2019-04-05T06:45:55.308Z,6.43
2019-04-05T06:48:23.055Z,8.10
2019-04-05T06:50:50.750Z,12.70
2019-04-05T06:53:18.581Z,10.03
2019-04-05T06:55:46.299Z,11.70
2019-04-05T06:58:19.778Z,11.97
2019-04-05T07:00:56.436Z,8.80
2019-04-05T07:03:13.700Z,6.97
2019-04-05T07:05:41.716Z,10.03
2019-04-05T07:08:09.499Z,7.73
2019-04-05T07:10:37.243Z,7.30
2019-04-05T07:13:05.081Z,7.87
2019-04-05T07:15:32.849Z,7.00
2019-04-05T07:18:00.554Z,8.10
2019-04-05T07:20:28.229Z,10.93
2019-04-05T07:22:56.019Z,9.70
2019-04-05T07:25:23.710Z,9.87
2019-04-05T07:27:51.416Z,11.73
2019-04-05T07:30:19.736Z,8.37
2019-04-05T07:32:47.423Z,11.10
2019-04-05T07:35:15.171Z,9.87
2019-04-05T07:37:42.947Z,9.60
2019-04-05T07:40:10.856Z,7.50
2019-04-05T07:42:38.563Z,12.73
2019-04-05T07:45:06.675Z,3.20
2019-04-05T07:47:34.385Z,7.43
2019-04-05T07:50:02.146Z,3.83
2019-04-05T07:52:29.855Z,3.63
2019-04-05T07:54:57.568Z,5.40
2019-04-05T07:57:25.371Z,4.33
2019-04-05T07:59:53.113Z,3.37
2019-04-05T08:02:20.893Z,4.00
2019-04-05T08:04:48.605Z,6.70
2019-04-05T08:07:18.939Z,2.50
2019-04-05T08:09:47.756Z,3.63
2019-04-05T08:12:15.723Z,4.50
2019-04-05T08:14:44.115Z,4.37
2019-04-05T08:17:11.837Z,4.20
2019-04-05T08:19:39.556Z,2.50
2019-04-05T08:22:07.283Z,2.77
2019-04-05T08:24:34.991Z,3.97
2019-04-05T08:27:02.689Z,3.70
2019-04-05T08:29:30.344Z,3.07
2019-04-05T08:31:58.065Z,3.30
2019-04-05T08:34:25.899Z,3.33
2019-04-05T08:36:53.671Z,2.08
2019-04-05T08:39:21.395Z,3.08
2019-04-05T08:41:49.099Z,8.00
2019-04-05T08:44:16.954Z,1.92
2019-04-05T08:46:44.823Z,3.25
2019-04-05T08:49:12.532Z,5.62
2019-04-05T08:51:40.280Z,3.17
2019-04-05T08:54:07.983Z,7.85
2019-04-05T08:56:35.705Z,10.28
2019-04-05T08:59:03.521Z,2.77
2019-04-05T09:01:31.271Z,3.98
2019-04-05T09:03:58.980Z,3.95
2019-04-05T09:06:26.696Z,4.37
2019-04-05T09:08:54.549Z,3.00
2019-04-05T09:11:22.235Z,2.65
2019-04-05T09:13:49.941Z,2.47
2019-04-05T09:16:17.611Z,1.60
2019-04-05T09:18:45.304Z,1.70
2019-04-05T09:21:13.002Z,2.42
2019-04-05T09:23:40.804Z,2.20
2019-04-05T09:26:17.041Z,2.60
2019-04-05T09:28:44.770Z,2.30
2019-04-05T09:31:12.514Z,3.00
2019-04-05T09:33:40.228Z,2.22
2019-04-05T09:36:07.954Z,1.92
2019-04-05T09:38:35.635Z,3.45
2019-04-05T09:41:03.811Z,2.30
2019-04-05T09:43:31.513Z,4.40
2019-04-05T09:45:59.250Z,2.65
2019-04-05T09:48:26.952Z,1.80
2019-04-05T09:50:54.795Z,4.40
2019-04-05T09:53:22.503Z,3.72
2019-04-05T09:55:50.222Z,4.42
2019-04-05T09:58:18.038Z,2.42
2019-04-05T10:00:45.721Z,2.75
2019-04-05T10:03:14.209Z,3.17
2019-04-05T10:05:42.028Z,2.40
2019-04-05T10:08:13.541Z,2.08
2019-04-05T10:10:41.347Z,3.75
2019-04-05T10:13:09.989Z,3.87
2019-04-05T10:15:49.392Z,3.12
2019-04-05T10:18:17.257Z,3.30
2019-04-05T10:20:52.730Z,4.12
2019-04-05T10:23:20.390Z,5.62
2019-04-05T10:25:48.124Z,1.62
2019-04-05T10:28:16.866Z,2.83
2019-04-05T10:30:44.638Z,3.00
2019-04-05T10:33:12.311Z,2.77
2019-04-05T10:35:40.042Z,3.87
2019-04-05T10:38:07.806Z,2.60
2019-04-05T10:40:35.803Z,3.87
2019-04-05T10:43:03.633Z,4.75
2019-04-05T10:45:31.723Z,5.35
2019-04-05T10:47:59.435Z,4.33
2019-04-05T10:50:27.257Z,3.92
2019-04-05T10:52:55.343Z,1.98
2019-04-05T10:55:23.070Z,4.37
2019-04-05T10:57:52.849Z,2.22
2019-04-05T11:00:21.553Z,6.05
2019-04-05T11:02:49.245Z,4.47
2019-04-05T11:05:16.965Z,3.95
2019-04-05T11:07:44.647Z,3.90
2019-04-05T11:10:13.575Z,4.17
2019-04-05T11:12:41.312Z,2.10
2019-04-05T11:15:15.016Z,1.92
2019-04-05T11:17:42.618Z,3.37
2019-04-05T11:20:21.280Z,4.53
2019-04-05T11:22:40.793Z,2.05
2019-04-05T11:25:10.050Z,2.60
2019-04-05T11:27:37.806Z,1.82
2019-04-05T11:30:06.409Z,1.47
2019-04-05T11:32:34.433Z,4.90
2019-04-05T11:35:02.124Z,2.15
2019-04-05T11:37:30.731Z,3.80
2019-04-05T11:39:58.615Z,1.92
2019-04-05T11:42:27.418Z,2.08
2019-04-05T11:44:57.613Z,4.25
2019-04-05T11:47:27.625Z,1.62
2019-04-05T11:49:57.749Z,3.33
2019-04-05T11:52:25.508Z,2.80
2019-04-05T11:54:53.216Z,1.45
2019-04-05T11:57:20.924Z,1.47
2019-04-05T11:59:49.212Z,1.47
2019-04-05T12:02:36.359Z,1.77
2019-04-05T12:05:05.192Z,2.52
2019-04-05T12:07:32.869Z,5.58
2019-04-05T12:10:00.903Z,2.60
2019-04-05T12:12:28.634Z,0.88
2019-04-05T12:14:56.364Z,1.30
2019-04-05T12:17:24.526Z,1.25
2019-04-05T12:19:52.493Z,1.77
2019-04-05T12:22:20.978Z,1.07
2019-04-05T12:24:49.093Z,1.67
2019-04-05T12:27:17.043Z,1.22
2019-04-05T12:29:45.387Z,1.47
2019-04-05T12:32:17.897Z,4.70
2019-04-05T12:34:46.324Z,2.60
2019-04-05T12:37:14.044Z,0.57
2019-04-05T12:39:41.784Z,0.70
2019-04-05T12:42:11.981Z,0.75
2019-04-05T12:44:38.987Z,0.70
2019-04-05T12:47:06.736Z,4.03
2019-04-05T12:49:34.456Z,1.17
2019-04-05T12:52:02.571Z,2.07
2019-04-05T12:54:31.327Z,2.12
2019-04-05T12:56:59.110Z,1.00
2019-04-05T12:59:27.205Z,2.47
2019-04-05T13:01:55.551Z,5.33
2019-04-05T13:04:23.961Z,0.80
2019-04-05T13:06:52.945Z,1.57
2019-04-05T13:09:23.548Z,1.40
2019-04-05T13:11:51.852Z,1.23
2019-04-05T13:14:19.877Z,3.80
2019-04-05T13:16:49.530Z,0.50
2019-04-05T13:19:17.677Z,2.87
2019-04-05T13:21:45.952Z,4.53
2019-04-05T13:24:14.028Z,0.70
2019-04-05T13:26:42.148Z,1.27
2019-04-05T13:29:10.901Z,1.87
2019-04-05T13:31:39.192Z,0.95
2019-04-05T13:34:07.007Z,0.60
2019-04-05T13:36:35.607Z,0.30
2019-04-05T13:39:05.462Z,0.57
2019-04-05T13:41:34.006Z,1.95
2019-04-05T13:44:02.609Z,0.83
2019-04-05T13:46:30.765Z,1.13
2019-04-05T13:48:58.977Z,1.43
2019-04-05T13:51:28.158Z,2.47
2019-04-05T13:53:56.532Z,0.90
2019-04-05T13:56:24.420Z,4.95
2019-04-05T13:58:52.667Z,3.13
2019-04-05T14:01:21.393Z,0.97
2019-04-05T14:03:50.263Z,1.53
2019-04-05T14:06:18.619Z,1.22
2019-04-05T14:08:46.394Z,0.90
2019-04-05T14:11:14.368Z,0.90
2019-04-05T14:13:43.040Z,1.90
2019-04-05T14:16:12.536Z,1.45
2019-04-05T14:18:45.714Z,2.53
2019-04-05T14:21:10.880Z,3.60
2019-04-05T14:23:39.207Z,1.22
2019-04-05T14:26:07.103Z,4.72
2019-04-05T14:28:35.479Z,1.60
2019-04-05T14:31:03.895Z,3.17
2019-04-05T14:33:31.598Z,1.90
2019-04-05T14:35:59.448Z,4.20
2019-04-05T14:38:27.353Z,2.20
2019-04-05T14:40:55.210Z,1.90
2019-04-05T14:43:23.212Z,1.30
2019-04-05T14:45:50.888Z,1.20
2019-04-05T14:48:18.896Z,1.20
2019-04-05T14:50:46.951Z,1.23
2019-04-05T14:53:15.067Z,1.00
2019-04-05T14:55:43.528Z,3.40
2019-04-05T14:58:11.560Z,2.70
2019-04-05T15:00:39.611Z,1.47
2019-04-05T15:03:07.639Z,1.60
2019-04-05T15:05:35.451Z,1.93
2019-04-05T15:08:03.782Z,0.90
2019-04-05T15:10:31.654Z,1.33
2019-04-05T15:13:00.376Z,1.43
2019-04-05T15:15:28.920Z,1.77
2019-04-05T15:18:02.494Z,2.20
2019-04-05T15:20:30.295Z,1.03
2019-04-05T15:22:58.395Z,3.00
2019-04-05T15:25:26.732Z,2.07
2019-04-05T15:28:03.915Z,6.00
2019-04-05T15:30:33.939Z,1.50
2019-04-05T15:33:03.980Z,1.70
2019-04-05T15:35:31.942Z,3.47
2019-04-05T15:38:02.108Z,2.33
2019-04-05T15:40:33.168Z,1.40
2019-04-05T15:43:03.435Z,2.60
2019-04-05T15:45:31.582Z,2.60
2019-04-05T15:47:59.681Z,1.10
2019-04-05T15:50:27.815Z,2.30
2019-04-05T15:52:55.528Z,3.43
2019-04-05T15:55:23.618Z,2.07
2019-04-05T15:57:51.287Z,3.07
2019-04-05T16:00:25.885Z,2.77
2019-04-05T16:02:54.015Z,2.67
2019-04-05T16:05:22.107Z,3.23
2019-04-05T16:07:50.430Z,3.83
2019-04-05T16:10:19.689Z,1.80
2019-04-05T16:12:49.244Z,1.57
2019-04-05T16:15:17.446Z,2.00
2019-04-05T16:17:45.453Z,1.30
2019-04-05T16:20:13.931Z,1.33
2019-04-05T16:22:41.984Z,1.37
2019-04-05T16:25:10.274Z,2.30
2019-04-05T16:27:38.027Z,2.83
2019-04-05T16:30:07.178Z,2.50
2019-04-05T16:32:34.869Z,2.27
2019-04-05T16:35:02.559Z,3.37
2019-04-05T16:37:30.780Z,4.90
2019-04-05T16:39:58.457Z,4.07
2019-04-05T16:42:26.155Z,4.13
2019-04-05T16:44:54.048Z,2.63
2019-04-05T16:47:21.781Z,4.70
2019-04-05T16:49:49.486Z,3.13
2019-04-05T16:52:17.203Z,3.30
2019-04-05T16:54:44.915Z,4.20
2019-04-05T16:57:12.615Z,5.07
2019-04-05T16:59:40.327Z,4.67
2019-04-05T17:02:08.022Z,4.50
2019-04-05T17:04:36.016Z,5.00
2019-04-05T17:07:04.212Z,6.40
2019-04-05T17:09:32.160Z,3.40
2019-04-05T17:12:00.841Z,3.30
2019-04-05T17:14:28.899Z,3.70
2019-04-05T17:16:57.092Z,3.23
2019-04-05T17:19:25.389Z,2.03
2019-04-05T17:21:53.441Z,3.23
2019-04-05T17:24:22.123Z,3.67
2019-04-05T17:26:50.191Z,2.93
2019-04-05T17:29:18.875Z,3.83
2019-04-05T17:31:46.973Z,2.27
2019-04-05T17:34:14.747Z,4.07
2019-04-05T17:36:43.423Z,4.80
2019-04-05T17:39:11.869Z,6.20
2019-04-05T17:41:39.956Z,3.43
2019-04-05T17:44:08.232Z,2.10
2019-04-05T17:46:36.627Z,3.27
2019-04-05T17:49:04.678Z,3.57
2019-04-05T17:51:33.228Z,4.70
2019-04-05T17:54:01.025Z,3.53
2019-04-05T17:56:28.784Z,5.50
2019-04-05T17:58:56.517Z,3.87
2019-04-05T18:01:25.947Z,5.77
2019-04-05T18:03:54.123Z,4.40
2019-04-05T18:06:21.938Z,7.43
2019-04-05T18:08:50.192Z,4.83
2019-04-05T18:11:17.934Z,3.03
2019-04-05T18:13:45.644Z,3.67
2019-04-05T18:16:13.497Z,5.60
2019-04-05T18:18:41.235Z,3.67
2019-04-05T18:21:08.962Z,5.00
2019-04-05T18:23:36.696Z,3.97
2019-04-05T18:26:04.512Z,4.33
2019-04-05T18:28:32.238Z,6.87
2019-04-05T18:31:00.046Z,2.73
2019-04-05T18:33:27.692Z,3.73
2019-04-05T18:35:55.429Z,6.07
2019-04-05T18:38:23.371Z,6.97
2019-04-05T18:40:52.060Z,12.90
2019-04-05T18:43:19.984Z,9.33
2019-04-05T18:45:48.214Z,10.15
2019-04-05T18:48:18.683Z,6.67
2019-04-05T18:50:48.533Z,9.17
2019-04-05T18:53:16.641Z,6.60
2019-04-05T18:55:44.896Z,4.97
2019-04-05T18:58:13.160Z,5.10
2019-04-05T19:00:41.256Z,9.63
2019-04-05T19:03:09.562Z,15.67
2019-04-05T19:05:37.796Z,20.27
2019-04-05T19:08:06.260Z,12.60
2019-04-05T19:10:37.305Z,5.67
2019-04-05T19:13:04.358Z,9.77
2019-04-05T19:15:32.756Z,5.27
2019-04-05T19:18:00.899Z,8.73
2019-04-05T19:20:28.884Z,8.80
2019-04-05T19:22:56.584Z,7.50
2019-04-05T19:25:24.338Z,8.60
2019-04-05T19:27:52.454Z,9.33
2019-04-05T19:50:25.784Z,16.10
2019-04-05T19:52:53.421Z,16.70
2019-04-05T19:55:21.460Z,14.17
2019-04-05T19:57:49.491Z,12.77
2019-04-05T20:00:18.559Z,10.83
2019-04-05T20:02:46.576Z,7.80
2019-04-05T20:05:14.539Z,7.63
2019-04-05T20:07:42.953Z,8.90
2019-04-05T20:10:11.136Z,11.50
2019-04-05T20:12:39.038Z,12.27
2019-04-05T20:15:07.230Z,7.67
2019-04-05T20:17:35.479Z,8.27
2019-04-05T20:20:04.212Z,12.87
2019-04-05T20:22:32.258Z,8.10
2019-04-05T20:25:00.935Z,14.40
2019-04-05T20:27:28.647Z,7.07
2019-04-05T20:29:56.352Z,8.67
2019-04-05T20:32:24.063Z,6.63
2019-04-05T20:34:52.361Z,5.20
2019-04-05T20:37:20.677Z,6.00
2019-04-05T20:39:49.145Z,9.07
2019-04-05T20:42:17.451Z,8.80
2019-04-05T20:44:45.533Z,9.60
2019-04-05T20:47:13.895Z,8.40
2019-04-05T20:49:42.259Z,7.00
2019-04-05T20:52:10.361Z,7.23
2019-04-05T20:54:38.391Z,9.87
2019-04-05T20:57:06.520Z,10.60
2019-04-05T20:59:34.204Z,7.37
2019-04-05T21:02:02.129Z,11.40
2019-04-05T21:04:30.119Z,10.90
2019-04-05T21:06:57.794Z,13.13
2019-04-05T21:09:25.955Z,11.50
2019-04-05T21:11:53.991Z,8.40
2019-04-05T21:14:23.603Z,14.70
2019-04-05T21:16:52.279Z,10.30
2019-04-05T21:19:20.356Z,22.23
2019-04-05T21:21:48.424Z,18.33
2019-04-05T21:24:16.552Z,15.43
2019-04-05T21:26:44.879Z,7.57
2019-04-05T21:29:12.993Z,6.20
2019-04-05T21:31:41.119Z,10.57
2019-04-05T21:34:09.401Z,11.13
2019-04-05T21:36:37.772Z,9.57
2019-04-05T21:39:07.208Z,7.20
2019-04-05T21:41:35.200Z,5.27
2019-04-05T21:44:03.843Z,11.60
2019-04-05T21:46:32.025Z,7.93
2019-04-05T21:49:00.017Z,5.93
2019-04-05T21:51:28.160Z,9.90
2019-04-05T21:53:56.504Z,7.57
2019-04-05T21:56:24.880Z,7.27
2019-04-05T21:58:52.880Z,12.03
2019-04-05T22:01:22.312Z,5.97
2019-04-05T22:03:50.244Z,7.80
2019-04-05T22:06:18.957Z,10.53
2019-04-05T22:08:47.624Z,10.40
2019-04-05T22:11:15.704Z,11.17
2019-04-05T22:13:44.090Z,9.10
2019-04-05T22:16:12.145Z,10.93
2019-04-05T22:18:40.376Z,9.87
2019-04-05T22:21:08.641Z,5.27
2019-04-05T22:23:36.660Z,9.53
2019-04-05T22:26:14.098Z,6.27
2019-04-05T22:28:42.344Z,4.20
2019-04-05T22:31:10.450Z,5.47
2019-04-05T22:33:38.798Z,3.93
2019-04-05T22:36:06.864Z,2.67
2019-04-05T22:38:34.998Z,6.37
2019-04-05T22:41:03.322Z,3.23
2019-04-05T22:43:31.452Z,4.13
2019-04-05T22:46:00.085Z,2.93
2019-04-05T22:48:28.135Z,3.47
2019-04-05T22:50:56.840Z,2.10
2019-04-05T22:53:24.876Z,2.57
2019-04-05T22:55:53.288Z,3.57
2019-04-05T22:58:21.662Z,2.37
2019-04-05T23:00:49.721Z,1.87
2019-04-05T23:03:18.420Z,0.60
2019-04-05T23:05:46.528Z,1.50
2019-04-05T23:08:14.569Z,2.17
2019-04-05T23:10:42.604Z,1.63
2019-04-05T23:13:11.000Z,5.47
2019-04-05T23:15:39.396Z,1.33
2019-04-05T23:18:07.432Z,1.13
2019-04-05T23:20:35.651Z,5.60
2019-04-05T23:23:03.597Z,0.97
2019-04-05T23:25:31.457Z,4.07
2019-04-05T23:27:59.776Z,4.57
2019-04-05T23:30:28.721Z,2.60
2019-04-05T23:32:56.938Z,3.77
2019-04-05T23:35:24.871Z,2.93
2019-04-05T23:37:52.744Z,2.70
2019-04-05T23:40:20.828Z,3.60
2019-04-05T23:42:49.394Z,2.07
2019-04-05T23:45:17.507Z,3.23
2019-04-05T23:47:45.672Z,4.67
2019-04-05T23:50:15.141Z,3.83
2019-04-05T23:52:43.551Z,1.70
2019-04-05T23:55:11.746Z,3.87
2019-04-05T23:57:39.715Z,1.80
